createdAt,value
2023-08-02T00:04:01.075Z,16.30
2023-08-02T00:06:35.670Z,13.90
2023-08-02T00:09:04.245Z,14.20
2023-08-02T00:11:32.834Z,14.30
2023-08-02T00:14:02.599Z,14.20
2023-08-02T00:16:32.033Z,14.00
2023-08-02T00:21:29.065Z,16.10
2023-08-02T00:23:57.134Z,15.20
2023-08-02T00:31:24.325Z,14.80
2023-08-02T00:33:53.297Z,13.20
2023-08-02T00:38:50.382Z,14.30
2023-08-02T00:41:18.699Z,14.50
2023-08-02T00:43:49.355Z,15.80
2023-08-02T00:46:21.085Z,14.20
2023-08-02T00:48:51.276Z,12.60
2023-08-02T00:51:21.854Z,13.60
2023-08-02T00:53:50.358Z,12.30
2023-08-02T00:58:47.921Z,12.20
2023-08-02T01:03:47.025Z,15.10
2023-08-02T01:06:23.853Z,11.90
2023-08-02T01:08:59.816Z,13.00
2023-08-02T01:11:37.022Z,12.60
2023-08-02T01:14:08.729Z,14.50
2023-08-02T01:16:38.776Z,14.90
2023-08-02T01:19:11.368Z,11.90
2023-08-02T01:21:41.622Z,13.40
2023-08-02T01:24:10.322Z,12.40
2023-08-02T01:26:42.934Z,14.10
2023-08-02T01:29:20.260Z,13.20
2023-08-02T01:31:51.162Z,9.50
2023-08-02T01:36:51.523Z,12.10
2023-08-02T01:39:20.011Z,13.00
2023-08-02T01:44:17.383Z,14.00
2023-08-02T01:46:45.896Z,14.30
2023-08-02T01:54:13.071Z,13.30
2023-08-02T01:56:42.077Z,14.60
2023-08-02T01:59:13.167Z,12.10
2023-08-02T02:04:11.303Z,12.30
2023-08-02T02:06:40.249Z,14.50
2023-08-02T02:09:08.568Z,13.50
2023-08-02T02:11:38.339Z,13.90
2023-08-02T02:14:06.919Z,15.40
2023-08-02T02:16:35.228Z,12.40
2023-08-02T02:19:03.608Z,13.10
2023-08-02T02:21:31.719Z,15.40
2023-08-02T02:26:29.127Z,12.40
2023-08-02T02:28:58.972Z,13.90
2023-08-02T02:33:56.287Z,15.30
2023-08-02T02:38:54.705Z,12.30
2023-08-02T02:41:22.915Z,13.90
2023-08-02T02:46:21.272Z,14.00
2023-08-02T02:51:19.149Z,13.30
2023-08-02T02:53:47.459Z,12.90
2023-08-02T02:56:15.637Z,14.00
2023-08-02T02:58:43.943Z,13.00
2023-08-02T03:01:13.025Z,14.30
2023-08-02T03:03:43.230Z,13.90
2023-08-02T03:08:40.521Z,14.00
2023-08-02T03:13:37.747Z,14.20
2023-08-02T03:16:06.711Z,13.80
2023-08-02T03:21:05.615Z,13.90
2023-08-02T03:23:36.882Z,13.60
2023-08-02T03:28:33.985Z,14.60
2023-08-02T03:31:02.170Z,13.90
2023-08-02T03:33:30.630Z,15.20
2023-08-02T03:35:58.979Z,14.20
2023-08-02T03:38:30.296Z,13.60
2023-08-02T03:40:59.778Z,12.00
2023-08-02T03:45:56.975Z,14.10
2023-08-02T03:48:26.470Z,13.10
2023-08-02T03:55:53.848Z,13.20
2023-08-02T03:58:22.967Z,12.80
2023-08-02T04:00:52.387Z,13.00
2023-08-02T04:03:21.390Z,13.60
2023-08-02T04:05:49.842Z,13.00
2023-08-02T04:08:18.250Z,12.70
2023-08-02T04:13:16.718Z,12.90
2023-08-02T04:15:45.033Z,11.30
2023-08-02T04:18:13.405Z,13.80
2023-08-02T04:20:41.841Z,13.00
2023-08-02T04:28:09.016Z,13.10
2023-08-02T04:30:38.786Z,14.10
2023-08-02T04:33:08.073Z,13.30
2023-08-02T04:35:36.532Z,11.90
2023-08-02T04:38:04.928Z,13.20
2023-08-02T04:43:02.069Z,14.10
2023-08-02T04:45:30.646Z,14.70
2023-08-02T04:48:00.360Z,13.50
2023-08-02T04:50:28.669Z,13.10
2023-08-02T05:00:23.450Z,13.20
2023-08-02T05:05:21.941Z,15.00
2023-08-02T05:07:50.243Z,16.00
2023-08-02T05:10:18.633Z,14.50
2023-08-02T05:20:14.119Z,15.40
2023-08-02T05:22:43.984Z,15.20
2023-08-02T05:25:12.733Z,17.20
2023-08-02T05:30:11.502Z,17.40
2023-08-02T05:32:40.256Z,15.20
2023-08-02T05:35:09.684Z,16.00
2023-08-02T05:40:10.248Z,15.90
2023-08-02T05:42:38.741Z,14.50
2023-08-02T05:45:08.752Z,16.00
2023-08-02T05:50:07.186Z,16.30
2023-08-02T05:57:34.929Z,16.50
2023-08-02T06:00:04.454Z,16.90
2023-08-02T06:02:32.745Z,15.80
2023-08-02T06:05:01.297Z,18.20
2023-08-02T06:09:58.576Z,18.60
2023-08-02T06:12:27.157Z,18.50
2023-08-02T06:14:57.108Z,18.00
2023-08-02T06:17:27.312Z,16.60
2023-08-02T06:19:55.955Z,19.90
2023-08-02T06:22:24.413Z,17.10
2023-08-02T06:24:52.819Z,20.40
2023-08-02T06:27:21.446Z,20.50
2023-08-02T06:29:49.815Z,20.50
2023-08-02T06:32:19.841Z,18.70
2023-08-02T06:37:16.754Z,16.90
2023-08-02T06:39:45.243Z,19.80
2023-08-02T06:42:13.592Z,19.90
2023-08-02T06:47:11.228Z,19.50
2023-08-02T06:49:41.078Z,17.80
2023-08-02T06:52:10.263Z,18.90
2023-08-02T06:54:38.632Z,19.60
2023-08-02T06:57:07.473Z,18.50
2023-08-02T07:02:07.531Z,20.60
2023-08-02T07:04:38.234Z,17.60
2023-08-02T07:07:09.401Z,20.10
2023-08-02T07:09:37.741Z,18.90
2023-08-02T07:14:35.425Z,17.60
2023-08-02T07:17:03.778Z,20.70
2023-08-02T07:24:31.340Z,19.00
2023-08-02T07:29:28.280Z,19.30
2023-08-02T07:31:56.894Z,18.70
2023-08-02T07:39:22.936Z,20.70
2023-08-02T07:41:52.752Z,19.50
2023-08-02T07:44:21.163Z,20.80
2023-08-02T07:46:51.458Z,20.10
2023-08-02T07:54:17.576Z,20.20
2023-08-02T07:56:46.118Z,17.50
2023-08-02T07:59:16.174Z,18.20
2023-08-02T08:06:48.453Z,16.30
2023-08-02T08:09:21.861Z,18.70
2023-08-02T08:11:50.239Z,16.60
2023-08-02T08:14:20.265Z,16.60
2023-08-02T08:29:14.325Z,15.80
2023-08-02T08:31:44.818Z,16.80
2023-08-02T08:34:14.464Z,17.80
2023-08-02T08:36:43.609Z,16.80
2023-08-02T08:39:12.037Z,16.00
2023-08-02T08:46:39.160Z,16.40
2023-08-02T08:49:09.272Z,16.60
2023-08-02T08:51:42.083Z,16.70
2023-08-02T08:54:20.708Z,18.30
2023-08-02T08:56:49.733Z,16.10
2023-08-02T08:59:18.890Z,17.00
2023-08-02T09:01:48.329Z,16.70
2023-08-02T09:04:18.856Z,16.70
2023-08-02T09:06:47.665Z,16.20
2023-08-02T09:09:17.157Z,17.10
2023-08-02T09:11:46.223Z,17.20
2023-08-02T09:14:16.435Z,17.10
2023-08-02T09:16:59.752Z,15.50
2023-08-02T09:19:32.341Z,16.10
2023-08-02T09:22:10.985Z,15.60
2023-08-02T09:24:41.935Z,15.30
2023-08-02T09:27:15.754Z,16.80
2023-08-02T09:29:50.054Z,15.20
2023-08-02T09:32:20.393Z,16.10
2023-08-02T09:34:52.118Z,17.00
2023-08-02T09:37:32.906Z,18.90
2023-08-02T09:40:02.517Z,17.20
2023-08-02T09:42:31.531Z,17.00
2023-08-02T09:45:01.704Z,15.40
2023-08-02T09:47:30.959Z,18.10
2023-08-02T09:50:09.856Z,15.80
2023-08-02T09:52:40.217Z,16.40
2023-08-02T09:55:10.373Z,15.90
2023-08-02T10:00:11.661Z,17.20
2023-08-02T10:05:14.186Z,16.40
2023-08-02T10:07:47.954Z,16.80
2023-08-02T10:10:22.812Z,15.40
2023-08-02T10:12:57.921Z,16.80
2023-08-02T10:15:27.007Z,17.60
2023-08-02T10:17:59.591Z,15.20
2023-08-02T10:20:31.532Z,19.40
2023-08-02T10:23:01.380Z,17.30
2023-08-02T10:25:29.952Z,17.80
2023-08-02T10:30:30.647Z,15.40
2023-08-02T10:33:15.233Z,18.10
2023-08-02T10:36:05.255Z,16.60
2023-08-02T10:38:51.156Z,16.70
2023-08-02T10:41:21.318Z,16.80
2023-08-02T10:44:13.314Z,16.80
2023-08-02T10:49:42.942Z,16.80
2023-08-02T10:52:34.218Z,17.00
2023-08-02T10:55:12.168Z,17.10
2023-08-02T10:57:42.548Z,17.20
2023-08-02T11:00:19.971Z,15.90
2023-08-02T11:02:51.520Z,17.40
2023-08-02T11:05:40.740Z,17.50
2023-08-02T11:08:12.300Z,18.10
2023-08-02T11:10:51.971Z,16.80
2023-08-02T11:16:01.103Z,19.90
2023-08-02T11:21:10.566Z,18.40
2023-08-02T11:24:01.112Z,18.60
2023-08-02T11:29:18.898Z,17.50
2023-08-02T11:34:20.361Z,18.50
2023-08-02T11:36:51.210Z,18.10
2023-08-02T11:39:23.105Z,18.40
2023-08-02T11:42:03.647Z,18.30
2023-08-02T11:44:33.703Z,18.20
2023-08-02T11:54:33.688Z,18.10
2023-08-02T11:57:03.320Z,17.40
2023-08-02T12:04:40.899Z,17.10
2023-08-02T12:07:10.901Z,18.10
2023-08-02T12:09:45.210Z,18.20
2023-08-02T12:17:21.974Z,18.50
2023-08-02T12:19:51.101Z,19.30
2023-08-02T12:22:21.664Z,18.70
2023-08-02T12:28:05.571Z,18.30
2023-08-02T12:30:34.624Z,16.80
2023-08-02T12:43:03.613Z,19.50
2023-08-02T12:48:02.138Z,20.60
2023-08-02T12:53:00.660Z,19.20
2023-08-02T12:55:29.386Z,20.70
2023-08-02T13:00:30.058Z,22.00
2023-08-02T13:05:27.820Z,21.30
2023-08-02T13:07:56.366Z,23.50
2023-08-02T13:15:24.051Z,23.80
2023-08-02T13:17:52.532Z,24.20
2023-08-02T13:20:21.710Z,23.50
2023-08-02T13:22:50.247Z,23.80
2023-08-02T13:25:19.949Z,23.60
2023-08-02T13:27:48.495Z,25.40
2023-08-02T13:32:47.387Z,22.60
2023-08-02T13:35:17.651Z,17.10
2023-08-02T13:37:46.125Z,21.60
2023-08-02T13:40:14.540Z,22.20
2023-08-02T13:45:11.976Z,22.40
2023-08-02T13:50:11.594Z,22.00
2023-08-02T13:55:09.657Z,21.20
2023-08-02T14:00:09.649Z,20.80
2023-08-02T14:05:07.307Z,20.50
2023-08-02T14:07:37.147Z,20.60
2023-08-02T14:10:06.484Z,20.90
2023-08-02T14:12:36.196Z,19.40
2023-08-02T14:25:02.600Z,21.20
2023-08-02T14:27:30.970Z,19.50
2023-08-02T14:42:29.777Z,18.90
2023-08-02T14:44:58.423Z,19.10
2023-08-02T14:47:27.078Z,18.50
2023-08-02T14:49:55.655Z,16.00
2023-08-02T14:54:54.057Z,16.00
2023-08-02T14:59:52.634Z,18.00
2023-08-02T15:02:21.456Z,14.90
2023-08-02T15:09:49.875Z,12.80
2023-08-02T15:12:18.769Z,17.10
2023-08-02T15:17:17.639Z,15.40
2023-08-02T15:19:46.447Z,17.60
2023-08-02T15:22:15.058Z,16.10
2023-08-02T15:27:12.421Z,15.50
2023-08-02T15:29:40.834Z,18.10
2023-08-02T15:32:09.887Z,16.90
2023-08-02T15:34:39.941Z,17.20
2023-08-02T15:42:07.736Z,19.00
2023-08-02T15:44:36.476Z,20.70
2023-08-02T15:47:06.722Z,18.60
2023-08-02T15:52:06.831Z,20.20
2023-08-02T15:54:35.294Z,18.50
2023-08-02T15:57:03.944Z,19.20
2023-08-02T15:59:32.414Z,20.60
2023-08-02T16:07:01.245Z,22.60
2023-08-02T16:09:31.096Z,22.30
2023-08-02T16:16:57.361Z,20.80
2023-08-02T16:19:25.908Z,20.80
2023-08-02T16:26:53.331Z,22.20
2023-08-02T16:29:21.687Z,22.40
2023-08-02T16:31:50.211Z,22.10
2023-08-02T16:34:19.911Z,19.90
2023-08-02T16:39:17.806Z,20.40
2023-08-02T16:44:16.938Z,21.00
2023-08-02T16:46:45.337Z,21.00
2023-08-02T16:49:13.715Z,20.80
2023-08-02T16:59:09.549Z,21.90
2023-08-02T17:01:39.386Z,20.30
2023-08-02T17:04:07.837Z,19.10
2023-08-02T17:11:34.387Z,20.40
2023-08-02T17:19:05.169Z,19.40
2023-08-02T17:34:00.652Z,18.10
2023-08-02T17:36:30.554Z,18.20
2023-08-02T17:41:28.055Z,18.80
2023-08-02T17:46:27.076Z,18.90
2023-08-02T17:48:55.677Z,18.30
2023-08-02T17:51:24.244Z,18.00
2023-08-02T17:53:54.634Z,18.60
2023-08-02T17:58:51.645Z,18.00
2023-08-02T18:01:23.130Z,21.30
2023-08-02T18:03:53.205Z,19.90
2023-08-02T18:06:24.546Z,21.40
2023-08-02T18:08:54.492Z,19.00
2023-08-02T18:13:51.972Z,19.70
2023-08-02T18:16:20.340Z,20.40
2023-08-02T18:26:17.487Z,20.30
2023-08-02T18:31:14.578Z,18.40
2023-08-02T18:33:46.456Z,19.60
2023-08-02T18:36:18.188Z,18.20
2023-08-02T18:41:22.759Z,17.80
2023-08-02T18:43:53.162Z,19.00
2023-08-02T18:46:23.085Z,17.40
2023-08-02T18:48:53.549Z,16.60
2023-08-02T18:56:24.469Z,16.10
2023-08-02T18:58:53.241Z,16.20
2023-08-02T19:03:52.633Z,17.20
2023-08-02T19:11:25.456Z,15.90
2023-08-02T19:13:56.162Z,17.10
2023-08-02T19:16:25.122Z,17.30
2023-08-02T19:23:52.487Z,16.20
2023-08-02T19:26:23.851Z,16.80
2023-08-02T19:28:53.102Z,16.80
2023-08-02T19:36:20.818Z,16.80
2023-08-02T19:41:26.199Z,16.90
2023-08-02T19:43:58.890Z,16.10
2023-08-02T19:46:28.189Z,15.70
2023-08-02T19:51:27.044Z,15.80
2023-08-02T19:56:24.790Z,16.30
2023-08-02T19:58:59.447Z,16.10
2023-08-02T20:01:29.110Z,16.60
2023-08-02T20:03:58.690Z,16.60
2023-08-02T20:06:28.977Z,14.40
2023-08-02T20:08:57.627Z,15.00
2023-08-02T20:13:57.747Z,15.30
2023-08-02T20:16:27.699Z,14.70
2023-08-02T20:18:57.319Z,15.50
2023-08-02T20:21:26.845Z,15.00
2023-08-02T20:24:03.204Z,15.60
2023-08-02T20:29:02.103Z,15.50
2023-08-02T20:31:37.466Z,14.30
2023-08-02T20:34:12.321Z,15.60
2023-08-02T20:36:41.025Z,15.60
2023-08-02T20:39:13.125Z,15.60
2023-08-02T20:41:43.289Z,15.50
2023-08-02T20:44:22.917Z,14.70
2023-08-02T20:49:21.727Z,15.40
2023-08-02T20:51:50.568Z,15.50
2023-08-02T20:56:48.984Z,13.10
2023-08-02T20:59:21.288Z,15.50
2023-08-02T21:04:18.995Z,15.00
2023-08-02T21:06:57.301Z,15.70
2023-08-02T21:12:04.464Z,15.50
2023-08-02T21:14:34.228Z,15.50
2023-08-02T21:17:02.658Z,14.10
2023-08-02T21:19:37.281Z,15.30
2023-08-02T21:22:07.121Z,15.60
2023-08-02T21:27:07.000Z,15.60
2023-08-02T21:29:37.323Z,14.10
2023-08-02T21:32:11.381Z,14.50
2023-08-02T21:37:11.391Z,15.60
2023-08-02T21:39:45.748Z,15.60
2023-08-02T21:42:25.089Z,15.90
2023-08-02T21:44:59.578Z,15.60
2023-08-02T21:52:26.230Z,15.40
2023-08-02T21:59:57.517Z,14.20
2023-08-02T22:09:56.451Z,15.50
2023-08-02T22:12:25.456Z,15.50
2023-08-02T22:15:04.097Z,16.30
2023-08-02T22:20:03.747Z,14.50
2023-08-02T22:30:00.079Z,15.40
2023-08-02T22:47:23.014Z,15.50
2023-08-02T22:54:54.352Z,15.50
2023-08-02T22:57:25.588Z,14.50
2023-08-02T23:02:30.317Z,17.00
2023-08-02T23:07:34.331Z,15.40
2023-08-02T23:10:07.198Z,14.90
2023-08-02T23:12:39.955Z,14.10
2023-08-02T23:15:19.007Z,15.30
2023-08-02T23:17:48.892Z,15.30
2023-08-02T23:20:42.620Z,15.30
2023-08-02T23:23:26.474Z,15.20
2023-08-02T23:26:01.682Z,15.20
2023-08-02T23:28:32.006Z,14.80
2023-08-02T23:31:04.754Z,15.20
2023-08-02T23:33:34.476Z,15.20
2023-08-02T23:36:03.020Z,13.70
2023-08-02T23:41:00.209Z,16.80
2023-08-02T23:43:28.520Z,13.70
2023-08-02T23:45:56.649Z,15.00
2023-08-02T23:50:55.408Z,15.00
2023-08-02T23:53:23.945Z,13.50
